createdAt,value
2019-05-22T00:00:32.249Z,78.80
2019-05-22T00:03:01.242Z,78.80
2019-05-22T00:05:33.868Z,78.80
2019-05-22T00:08:05.069Z,78.80
2019-05-22T00:10:34.683Z,78.80
2019-05-22T00:13:07.274Z,78.90
2019-05-22T00:15:38.708Z,78.70
2019-05-22T00:18:09.779Z,78.90
2019-05-22T00:20:39.178Z,78.80
2019-05-22T00:23:10.623Z,78.80
2019-05-22T00:25:40.975Z,78.80
2019-05-22T00:28:10.803Z,78.80
2019-05-22T00:30:44.318Z,78.80
2019-05-22T00:33:14.212Z,78.80
2019-05-22T00:35:44.860Z,78.70
2019-05-22T00:38:15.052Z,78.70
2019-05-22T00:40:47.509Z,78.70
2019-05-22T00:43:39.664Z,78.70
2019-05-22T00:46:11.916Z,78.60
2019-05-22T00:48:43.866Z,78.60
2019-05-22T00:51:29.856Z,78.60
2019-05-22T00:54:16.763Z,78.70
2019-05-22T00:56:54.237Z,78.60
2019-05-22T00:59:29.389Z,78.60
2019-05-22T01:02:02.411Z,78.50
2019-05-22T01:04:35.884Z,78.60
2019-05-22T01:07:09.590Z,78.50
2019-05-22T01:09:41.858Z,78.50
2019-05-22T01:12:19.513Z,78.60
2019-05-22T01:14:50.731Z,78.60
2019-05-22T01:17:21.862Z,78.60
2019-05-22T01:19:54.763Z,78.60
2019-05-22T01:22:25.562Z,78.70
2019-05-22T01:24:57.104Z,78.70
2019-05-22T01:27:27.338Z,78.70
2019-05-22T01:29:57.836Z,78.70
2019-05-22T01:32:47.932Z,78.70
2019-05-22T01:35:19.312Z,78.50
2019-05-22T01:37:48.404Z,78.70
2019-05-22T01:40:32.569Z,78.50
2019-05-22T01:43:03.639Z,79.40
2019-05-22T01:45:33.682Z,78.50
2019-05-22T01:48:10.899Z,78.60
2019-05-22T01:50:51.054Z,78.70
2019-05-22T01:53:23.734Z,78.70
2019-05-22T01:55:58.494Z,78.50
2019-05-22T01:58:30.467Z,78.50
2019-05-22T02:01:00.742Z,78.50
2019-05-22T02:03:32.611Z,78.50
2019-05-22T02:06:01.969Z,78.60
2019-05-22T02:08:33.017Z,78.60
2019-05-22T02:11:03.566Z,78.60
2019-05-22T02:13:40.404Z,78.60
2019-05-22T02:16:11.440Z,78.70
2019-05-22T02:19:00.540Z,78.60
2019-05-22T02:21:30.830Z,78.70
2019-05-22T02:24:00.375Z,78.70
2019-05-22T02:26:30.831Z,78.70
2019-05-22T02:29:01.239Z,78.70
2019-05-22T02:31:30.833Z,78.70
2019-05-22T02:34:02.546Z,78.70
2019-05-22T02:36:34.747Z,78.70
2019-05-22T02:39:07.463Z,78.70
2019-05-22T02:41:43.419Z,78.70
2019-05-22T02:44:12.870Z,78.70
2019-05-22T02:46:42.047Z,78.60
2019-05-22T02:49:14.274Z,78.60
2019-05-22T02:51:43.870Z,78.50
2019-05-22T02:54:14.305Z,78.60
2019-05-22T02:56:43.496Z,78.60
2019-05-22T02:59:15.221Z,78.60
2019-05-22T03:01:45.303Z,78.50
2019-05-22T03:04:16.175Z,78.50
2019-05-22T03:06:45.202Z,78.50
2019-05-22T03:09:22.872Z,78.70
2019-05-22T03:12:01.598Z,78.60
2019-05-22T03:14:32.851Z,78.60
2019-05-22T03:17:05.384Z,78.60
2019-05-22T03:19:38.994Z,78.60
2019-05-22T03:22:29.269Z,78.80
2019-05-22T03:25:01.876Z,78.80
2019-05-22T03:27:38.915Z,78.70
2019-05-22T03:30:13.695Z,78.70
2019-05-22T03:32:44.413Z,78.70
2019-05-22T03:35:14.542Z,78.70
2019-05-22T03:37:43.805Z,79.30
2019-05-22T03:40:13.205Z,78.60
2019-05-22T03:42:42.757Z,78.60
2019-05-22T03:45:13.506Z,78.60
2019-05-22T03:47:43.802Z,78.60
2019-05-22T03:50:13.708Z,78.70
2019-05-22T03:52:43.788Z,78.70
2019-05-22T03:55:14.127Z,78.70
2019-05-22T03:57:44.544Z,78.80
2019-05-22T04:00:17.342Z,78.80
2019-05-22T04:02:50.778Z,78.70
2019-05-22T04:05:20.575Z,78.80
2019-05-22T04:07:51.525Z,78.80
2019-05-22T04:10:21.312Z,78.80
2019-05-22T04:12:51.545Z,78.80
2019-05-22T04:15:22.104Z,78.70
2019-05-22T04:17:53.452Z,78.70
2019-05-22T04:20:23.318Z,78.70
2019-05-22T04:22:59.887Z,79.50
2019-05-22T04:25:29.666Z,78.80
2019-05-22T04:27:58.791Z,78.80
2019-05-22T04:30:28.982Z,78.90
2019-05-22T04:32:58.368Z,78.80
2019-05-22T04:35:28.985Z,79.00
2019-05-22T04:37:58.781Z,78.90
2019-05-22T04:40:58.298Z,78.80
2019-05-22T04:43:31.157Z,78.90
2019-05-22T04:46:02.128Z,78.80
2019-05-22T04:48:34.729Z,78.90
2019-05-22T04:51:25.081Z,78.90
2019-05-22T04:53:55.783Z,78.80
2019-05-22T04:56:26.153Z,78.80
2019-05-22T04:58:55.851Z,78.80
2019-05-22T05:01:25.684Z,78.80
2019-05-22T05:03:54.976Z,78.80
2019-05-22T05:06:26.271Z,78.80
2019-05-22T05:08:56.397Z,78.80
2019-05-22T05:11:26.174Z,78.80
2019-05-22T05:13:55.465Z,78.90
2019-05-22T05:16:24.561Z,78.80
2019-05-22T05:18:54.225Z,78.90
2019-05-22T05:21:23.490Z,78.90
2019-05-22T05:23:52.792Z,78.90
2019-05-22T05:26:22.792Z,79.00
2019-05-22T05:28:52.358Z,79.00
2019-05-22T05:31:22.466Z,79.00
2019-05-22T05:34:21.201Z,78.90
2019-05-22T05:36:50.516Z,78.80
2019-05-22T05:40:09.091Z,78.80
2019-05-22T05:42:38.876Z,78.70
2019-05-22T05:45:13.422Z,78.80
2019-05-22T05:47:41.699Z,78.80
2019-05-22T05:50:13.227Z,79.00
2019-05-22T05:52:42.790Z,79.00
2019-05-22T05:55:13.771Z,79.30
2019-05-22T05:58:24.924Z,79.30
2019-05-22T06:00:57.815Z,79.20
2019-05-22T06:03:32.468Z,79.10
2019-05-22T06:06:09.594Z,79.00
2019-05-22T06:08:39.574Z,79.00
2019-05-22T06:11:45.616Z,79.00
2019-05-22T06:14:23.819Z,79.20
2019-05-22T06:17:33.211Z,79.20
2019-05-22T06:20:06.113Z,79.10
2019-05-22T06:22:35.480Z,79.10
2019-05-22T06:25:06.329Z,79.00
2019-05-22T06:27:44.327Z,79.10
2019-05-22T06:30:17.855Z,79.20
2019-05-22T06:33:28.543Z,79.10
2019-05-22T06:35:57.958Z,79.10
2019-05-22T06:38:48.595Z,79.00
2019-05-22T06:41:18.127Z,79.00
2019-05-22T06:44:11.713Z,78.80
2019-05-22T06:46:46.034Z,79.00
2019-05-22T06:49:53.807Z,78.80
2019-05-22T06:52:23.342Z,79.00
2019-05-22T06:54:52.567Z,79.00
2019-05-22T06:57:39.838Z,78.80
2019-05-22T07:00:21.607Z,78.80
2019-05-22T07:02:51.308Z,78.80
2019-05-22T07:05:20.878Z,78.80
2019-05-22T07:07:50.445Z,78.80
2019-05-22T07:10:20.984Z,78.80
2019-05-22T07:12:51.224Z,79.50
2019-05-22T07:15:34.105Z,78.90
2019-05-22T07:18:05.521Z,78.90
2019-05-22T07:20:37.890Z,78.90
2019-05-22T07:23:08.082Z,79.00
2019-05-22T07:25:41.228Z,78.90
2019-05-22T07:28:10.333Z,78.90
2019-05-22T07:30:39.502Z,78.90
2019-05-22T07:33:09.202Z,78.80
2019-05-22T07:35:50.271Z,78.70
2019-05-22T07:38:09.813Z,78.80
2019-05-22T07:40:39.484Z,78.70
2019-05-22T07:43:08.660Z,79.50
2019-05-22T07:45:37.881Z,78.80
2019-05-22T07:48:07.657Z,78.70
2019-05-22T07:50:48.030Z,78.70
2019-05-22T07:53:15.580Z,78.70
2019-05-22T07:55:45.167Z,78.80
2019-05-22T07:58:16.286Z,78.70
2019-05-22T08:01:00.603Z,78.80
2019-05-22T08:03:31.805Z,78.80
2019-05-22T08:06:01.938Z,78.70
2019-05-22T08:08:35.369Z,78.60
2019-05-22T08:11:05.777Z,78.70
2019-05-22T08:13:35.527Z,78.70
2019-05-22T08:16:04.988Z,78.70
2019-05-22T08:18:38.701Z,78.70
2019-05-22T08:21:08.239Z,78.80
2019-05-22T08:23:37.685Z,78.70
2019-05-22T08:26:08.118Z,78.70
2019-05-22T08:28:39.328Z,78.60
2019-05-22T08:31:10.070Z,78.60
2019-05-22T08:33:39.691Z,78.60
2019-05-22T08:36:09.461Z,78.60
2019-05-22T08:38:39.187Z,78.60
2019-05-22T08:41:09.759Z,78.50
2019-05-22T08:44:03.430Z,78.60
2019-05-22T08:46:12.349Z,78.60
2019-05-22T08:48:47.850Z,78.50
2019-05-22T08:51:15.016Z,78.50
2019-05-22T08:53:48.078Z,78.50
2019-05-22T08:56:16.092Z,79.30
2019-05-22T08:58:47.633Z,78.50
2019-05-22T09:01:16.640Z,78.60
2019-05-22T09:03:46.586Z,78.60
2019-05-22T09:06:16.122Z,78.50
2019-05-22T09:08:45.570Z,78.30
2019-05-22T09:11:15.139Z,78.30
2019-05-22T09:14:03.698Z,78.40
2019-05-22T09:16:32.639Z,78.30
2019-05-22T09:19:02.569Z,78.40
2019-05-22T09:21:32.615Z,78.30
2019-05-22T09:24:02.084Z,78.40
2019-05-22T09:26:32.713Z,78.40
2019-05-22T09:29:02.597Z,78.30
2019-05-22T09:31:31.964Z,78.40
2019-05-22T09:34:01.233Z,78.50
2019-05-22T09:36:30.423Z,78.50
2019-05-22T09:38:59.620Z,78.60
2019-05-22T09:41:28.436Z,78.70
2019-05-22T09:43:57.632Z,77.80
2019-05-22T09:46:27.600Z,78.40
2019-05-22T09:48:57.694Z,78.20
2019-05-22T09:51:26.640Z,78.00
2019-05-22T09:53:56.845Z,78.00
2019-05-22T09:56:26.135Z,78.10
2019-05-22T09:58:55.652Z,77.90
2019-05-22T10:01:24.899Z,77.90
2019-05-22T10:03:54.106Z,77.70
2019-05-22T10:06:23.349Z,77.80
2019-05-22T10:08:52.461Z,77.80
2019-05-22T10:11:22.111Z,77.80
2019-05-22T10:13:51.458Z,77.90
2019-05-22T10:16:20.866Z,78.80
2019-05-22T10:18:52.982Z,78.10
2019-05-22T10:21:21.854Z,78.10
2019-05-22T10:23:51.237Z,78.10
2019-05-22T10:26:20.378Z,78.10
2019-05-22T10:28:49.421Z,77.70
2019-05-22T10:31:21.680Z,77.50
2019-05-22T10:33:51.921Z,77.50
2019-05-22T10:36:20.476Z,77.70
2019-05-22T10:38:49.624Z,77.50
2019-05-22T10:41:21.005Z,77.40
2019-05-22T10:43:51.148Z,77.50
2019-05-22T10:46:20.484Z,77.50
2019-05-22T10:48:50.043Z,77.50
2019-05-22T10:51:19.159Z,77.40
2019-05-22T10:53:48.540Z,77.40
2019-05-22T10:56:18.124Z,77.30
2019-05-22T10:58:47.955Z,77.50
2019-05-22T11:01:16.761Z,77.50
2019-05-22T11:03:46.760Z,77.50
2019-05-22T11:06:16.567Z,77.40
2019-05-22T11:08:45.925Z,77.20
2019-05-22T11:11:16.886Z,77.10
2019-05-22T11:14:00.725Z,77.30
2019-05-22T11:16:18.038Z,77.00
2019-05-22T11:18:47.092Z,77.10
2019-05-22T11:21:16.587Z,77.10
2019-05-22T11:23:51.874Z,76.80
2019-05-22T11:26:17.708Z,76.90
2019-05-22T11:28:47.621Z,76.80
2019-05-22T11:31:18.594Z,76.30
2019-05-22T11:33:47.454Z,76.20
2019-05-22T11:36:18.051Z,76.10
2019-05-22T11:38:47.562Z,76.30
2019-05-22T11:41:18.865Z,76.20
2019-05-22T11:43:47.826Z,76.40
2019-05-22T11:46:18.007Z,76.40
2019-05-22T11:48:47.896Z,76.40
2019-05-22T11:51:17.869Z,76.40
2019-05-22T11:53:46.940Z,76.40
2019-05-22T11:56:16.387Z,76.20
2019-05-22T11:58:45.579Z,76.00
2019-05-22T12:01:15.181Z,76.20
2019-05-22T12:03:44.565Z,76.40
2019-05-22T12:06:14.600Z,76.30
2019-05-22T12:08:45.374Z,76.10
2019-05-22T12:11:18.485Z,76.00
2019-05-22T12:13:48.425Z,75.90
2019-05-22T12:16:17.688Z,75.80
2019-05-22T12:18:48.818Z,75.80
2019-05-22T12:21:18.521Z,75.70
2019-05-22T12:23:47.696Z,75.50
2019-05-22T12:26:17.544Z,75.40
2019-05-22T12:28:46.774Z,75.60
2019-05-22T12:31:16.027Z,75.60
2019-05-22T12:33:45.298Z,75.70
2019-05-22T12:36:14.383Z,75.50
2019-05-22T12:38:44.560Z,75.60
2019-05-22T12:41:15.457Z,75.60
2019-05-22T12:43:45.109Z,75.50
2019-05-22T12:46:14.880Z,75.40
2019-05-22T12:48:45.129Z,75.20
2019-05-22T12:51:16.257Z,75.20
2019-05-22T12:53:46.610Z,75.30
2019-05-22T12:56:16.014Z,75.50
2019-05-22T12:58:46.383Z,75.50
2019-05-22T13:01:15.641Z,75.50
2019-05-22T13:03:45.635Z,75.30
2019-05-22T13:06:15.003Z,75.00
2019-05-22T13:08:44.315Z,74.80
2019-05-22T13:11:14.387Z,74.70
2019-05-22T13:13:43.510Z,74.60
2019-05-22T13:16:13.222Z,74.70
2019-05-22T13:18:42.770Z,74.60
2019-05-22T13:21:15.274Z,74.90
2019-05-22T13:23:45.854Z,74.80
2019-05-22T13:26:15.874Z,74.90
2019-05-22T13:28:47.254Z,74.80
2019-05-22T13:31:16.833Z,74.70
2019-05-22T13:33:46.544Z,74.70
2019-05-22T13:36:18.732Z,74.80
2019-05-22T13:38:48.443Z,74.80
2019-05-22T13:41:17.443Z,74.60
2019-05-22T13:43:47.411Z,74.60
2019-05-22T13:46:16.803Z,74.10
2019-05-22T13:48:45.645Z,73.90
2019-05-22T13:51:15.396Z,73.70
2019-05-22T13:53:45.164Z,73.90
2019-05-22T13:56:15.260Z,74.00
2019-05-22T13:58:45.503Z,74.00
2019-05-22T14:01:14.626Z,74.00
2019-05-22T14:03:44.098Z,74.00
2019-05-22T14:06:13.170Z,73.60
2019-05-22T14:08:42.672Z,73.60
2019-05-22T14:11:12.624Z,73.50
2019-05-22T14:13:42.427Z,73.50
2019-05-22T14:16:12.212Z,73.50
2019-05-22T14:18:41.460Z,73.30
2019-05-22T14:21:10.509Z,73.20
2019-05-22T14:23:39.784Z,73.20
2019-05-22T14:26:09.833Z,73.20
2019-05-22T14:28:39.584Z,73.00
2019-05-22T14:31:09.013Z,72.90
2019-05-22T14:33:40.613Z,72.80
2019-05-22T14:36:09.481Z,73.40
2019-05-22T14:38:38.670Z,72.60
2019-05-22T14:41:08.442Z,72.50
2019-05-22T14:43:37.735Z,72.50
2019-05-22T14:46:06.964Z,72.70
2019-05-22T14:48:55.490Z,72.50
2019-05-22T14:51:25.550Z,72.10
2019-05-22T14:53:57.306Z,71.50
2019-05-22T14:56:26.550Z,71.10
2019-05-22T14:58:56.443Z,71.00
2019-05-22T15:01:26.475Z,70.60
2019-05-22T15:03:56.157Z,70.60
2019-05-22T15:06:25.861Z,70.50
2019-05-22T15:08:55.329Z,70.40
2019-05-22T15:11:24.994Z,70.20
2019-05-22T15:13:54.811Z,70.00
2019-05-22T15:16:24.029Z,69.90
2019-05-22T15:18:53.929Z,69.60
2019-05-22T15:21:23.891Z,69.50
2019-05-22T15:23:54.650Z,69.20
2019-05-22T15:26:23.734Z,69.30
2019-05-22T15:28:52.591Z,69.10
2019-05-22T15:31:22.369Z,69.10
2019-05-22T15:33:51.511Z,69.10
2019-05-22T15:36:24.019Z,69.10
2019-05-22T15:38:53.967Z,68.90
2019-05-22T15:41:23.751Z,68.80
2019-05-22T15:43:54.000Z,68.90
2019-05-22T15:46:24.656Z,68.90
2019-05-22T15:48:56.132Z,68.70
2019-05-22T15:51:31.861Z,68.70
2019-05-22T15:54:03.381Z,68.50
2019-05-22T15:56:35.390Z,68.60
2019-05-22T15:59:05.929Z,68.40
2019-05-22T16:01:37.061Z,67.70
2019-05-22T16:04:09.378Z,68.30
2019-05-22T16:06:39.380Z,68.50
2019-05-22T16:09:13.180Z,69.20
2019-05-22T16:11:43.129Z,68.40
2019-05-22T16:14:14.986Z,68.40
2019-05-22T16:16:45.847Z,68.50
2019-05-22T16:19:18.659Z,68.50
2019-05-22T16:22:11.599Z,68.50
2019-05-22T16:24:40.974Z,68.80
2019-05-22T16:27:12.589Z,68.70
2019-05-22T16:29:42.207Z,68.60
2019-05-22T16:32:14.689Z,68.60
2019-05-22T16:34:44.812Z,68.70
2019-05-22T16:37:14.503Z,68.70
2019-05-22T16:39:44.233Z,68.70
2019-05-22T16:42:13.433Z,68.60
2019-05-22T16:44:43.621Z,68.60
2019-05-22T16:47:13.006Z,68.50
2019-05-22T16:49:43.221Z,68.50
2019-05-22T16:52:14.367Z,68.50
2019-05-22T16:54:45.596Z,68.40
2019-05-22T16:57:15.186Z,68.50
2019-05-22T16:59:45.931Z,68.40
2019-05-22T17:02:17.010Z,68.50
2019-05-22T17:04:47.531Z,68.50
2019-05-22T17:07:17.538Z,68.50
2019-05-22T17:09:47.275Z,68.30
2019-05-22T17:12:18.132Z,68.40
2019-05-22T17:14:49.168Z,68.40
2019-05-22T17:17:19.429Z,68.40
2019-05-22T17:19:48.970Z,68.60
2019-05-22T17:22:19.082Z,68.40
2019-05-22T17:24:48.346Z,68.40
2019-05-22T17:27:18.947Z,68.40
2019-05-22T17:29:50.765Z,68.50
2019-05-22T17:32:20.675Z,68.30
2019-05-22T17:34:50.576Z,68.40
2019-05-22T17:37:21.587Z,68.50
2019-05-22T17:39:51.986Z,68.40
2019-05-22T17:42:24.912Z,68.40
2019-05-22T17:44:55.426Z,68.40
2019-05-22T17:47:26.453Z,68.40
2019-05-22T17:49:56.022Z,68.50
2019-05-22T17:52:26.096Z,68.50
2019-05-22T17:54:56.838Z,68.60
2019-05-22T17:57:26.758Z,68.60
2019-05-22T17:59:55.907Z,68.60
2019-05-22T18:02:29.763Z,68.70
2019-05-22T18:04:59.486Z,68.70
2019-05-22T18:07:29.490Z,68.70
2019-05-22T18:09:59.054Z,68.70
2019-05-22T18:12:28.208Z,68.70
2019-05-22T18:14:57.265Z,68.90
2019-05-22T18:17:27.377Z,68.80
2019-05-22T18:19:56.633Z,68.90
2019-05-22T18:22:26.522Z,68.90
2019-05-22T18:24:56.010Z,68.70
2019-05-22T18:27:25.572Z,69.00
2019-05-22T18:29:55.024Z,69.10
2019-05-22T18:32:24.393Z,69.20
2019-05-22T18:34:53.497Z,69.30
2019-05-22T18:37:22.392Z,69.20
2019-05-22T18:39:51.580Z,69.30
2019-05-22T18:42:21.319Z,69.30
2019-05-22T18:44:51.011Z,69.40
2019-05-22T18:47:20.430Z,69.40
2019-05-22T18:49:49.572Z,69.50
2019-05-22T18:52:18.934Z,69.40
2019-05-22T18:54:48.134Z,69.60
2019-05-22T18:57:17.395Z,69.60
2019-05-22T18:59:47.039Z,69.70
2019-05-22T19:02:16.534Z,69.60
2019-05-22T19:04:45.731Z,69.60
2019-05-22T19:07:14.806Z,69.50
2019-05-22T19:09:43.847Z,69.50
2019-05-22T19:12:13.877Z,69.40
2019-05-22T19:14:44.472Z,69.40
2019-05-22T19:17:13.376Z,69.40
2019-05-22T19:19:42.243Z,69.70
2019-05-22T19:22:11.383Z,69.70
2019-05-22T19:24:40.632Z,69.70
2019-05-22T19:27:09.699Z,69.80
2019-05-22T19:29:39.197Z,69.80
2019-05-22T19:32:08.263Z,70.00
2019-05-22T19:34:37.100Z,69.90
2019-05-22T19:37:06.153Z,69.90
2019-05-22T19:39:36.071Z,70.00
2019-05-22T19:42:05.873Z,70.00
2019-05-22T19:44:35.018Z,70.00
2019-05-22T19:47:05.261Z,70.00
2019-05-22T19:49:35.238Z,70.10
2019-05-22T19:52:05.011Z,70.10
2019-05-22T19:54:34.558Z,70.10
2019-05-22T19:57:04.564Z,70.80
2019-05-22T19:59:34.274Z,70.20
2019-05-22T20:02:04.164Z,70.10
2019-05-22T20:04:33.667Z,70.20
2019-05-22T20:07:02.476Z,70.30
2019-05-22T20:09:31.672Z,70.30
2019-05-22T20:12:01.611Z,70.30
2019-05-22T20:14:30.871Z,70.40
2019-05-22T20:17:00.348Z,70.50
2019-05-22T20:19:30.145Z,70.60
2019-05-22T20:22:00.528Z,70.60
2019-05-22T20:24:30.441Z,70.70
2019-05-22T20:27:00.225Z,70.80
2019-05-22T20:29:29.788Z,70.80
2019-05-22T20:31:59.046Z,70.80
2019-05-22T20:34:28.686Z,70.90
2019-05-22T20:36:58.211Z,70.90
2019-05-22T20:39:29.550Z,71.00
2019-05-22T20:41:58.452Z,70.90
2019-05-22T20:44:28.872Z,71.00
2019-05-22T20:46:58.417Z,70.90
2019-05-22T20:49:29.368Z,71.00
2019-05-22T20:51:59.105Z,71.00
2019-05-22T20:54:30.304Z,71.10
2019-05-22T20:57:00.637Z,71.10
2019-05-22T20:59:30.905Z,71.20
2019-05-22T21:02:01.142Z,72.00
2019-05-22T21:04:33.542Z,71.30
2019-05-22T21:07:07.123Z,71.40
2019-05-22T21:09:37.612Z,71.40
2019-05-22T21:12:06.776Z,71.30
2019-05-22T21:15:12.303Z,71.40
2019-05-22T21:17:42.184Z,71.30
2019-05-22T21:20:15.543Z,71.40
2019-05-22T21:22:46.081Z,71.40
2019-05-22T21:25:16.430Z,72.60
2019-05-22T21:27:45.819Z,72.60
2019-05-22T21:30:15.500Z,72.80
2019-05-22T21:32:45.282Z,72.80
2019-05-22T21:35:16.462Z,72.90
2019-05-22T21:37:46.213Z,72.80
2019-05-22T21:40:17.834Z,72.70
2019-05-22T21:42:47.616Z,72.80
2019-05-22T21:45:17.029Z,72.70
2019-05-22T21:47:45.948Z,72.70
2019-05-22T21:50:16.502Z,72.70
2019-05-22T21:52:45.475Z,72.60
2019-05-22T21:55:16.175Z,72.60
2019-05-22T21:57:46.117Z,72.70
2019-05-22T22:00:22.272Z,72.40
2019-05-22T22:02:52.557Z,72.40
2019-05-22T22:05:22.273Z,72.40
2019-05-22T22:07:52.738Z,72.50
2019-05-22T22:10:22.592Z,72.40
2019-05-22T22:12:53.952Z,72.40
2019-05-22T22:15:43.784Z,72.30
2019-05-22T22:18:14.429Z,72.30
2019-05-22T22:20:43.483Z,72.30
2019-05-22T22:23:14.648Z,72.30
2019-05-22T22:25:44.108Z,72.50
2019-05-22T22:28:16.337Z,72.40
2019-05-22T22:30:52.291Z,72.60
2019-05-22T22:33:25.252Z,72.80
2019-05-22T22:35:56.048Z,73.00
2019-05-22T22:38:26.819Z,73.20
2019-05-22T22:40:56.970Z,73.20
2019-05-22T22:43:31.103Z,73.20
2019-05-22T22:46:18.363Z,73.20
2019-05-22T22:48:50.176Z,73.10
2019-05-22T22:51:20.204Z,73.20
2019-05-22T22:53:50.153Z,73.10
2019-05-22T22:56:21.072Z,73.10
2019-05-22T22:58:50.474Z,73.70
2019-05-22T23:01:27.612Z,73.10
2019-05-22T23:03:58.498Z,73.00
2019-05-22T23:06:27.625Z,73.00
2019-05-22T23:08:56.463Z,73.00
2019-05-22T23:11:27.830Z,73.20
2019-05-22T23:13:57.230Z,73.20
2019-05-22T23:16:27.751Z,73.10
2019-05-22T23:19:38.077Z,73.20
2019-05-22T23:22:26.970Z,73.20
2019-05-22T23:24:59.490Z,73.20
2019-05-22T23:27:29.141Z,73.10
2019-05-22T23:29:59.873Z,73.10
2019-05-22T23:32:29.483Z,73.20
2019-05-22T23:34:59.394Z,73.30
2019-05-22T23:37:28.839Z,73.20
2019-05-22T23:39:59.265Z,73.40
2019-05-22T23:42:34.310Z,73.30
2019-05-22T23:45:06.886Z,73.40
2019-05-22T23:47:41.308Z,73.30
2019-05-22T23:50:10.422Z,73.30
2019-05-22T23:52:39.763Z,73.40
2019-05-22T23:55:10.513Z,73.40
2019-05-22T23:57:39.704Z,73.30
